Time;durP1;ratioP1;P1;durP2;ratioP2;P2;SDS_P1;SDS_P2;PMS_P1;PMS_P2;Temp;Humidity;BMP_temperature;BMP_pressure;BME280_temperature;BME280_humidity;BME280_pressure;Samples;Min_cycle;Max_cycle;Signal;HPM_P1;HPM_P2
2022/11/12 00:00:28;;;;;;;;;;;;;;;8.54;100.00;101205.00;4951309;29;19927;-89
2022/11/12 00:02:53;;;;;;;;;;;;;;;8.57;100.00;101206.72;4985450;23;19931;-87
2022/11/12 00:05:19;;;;;;;;;;;;;;;8.56;100.00;101197.94;4937499;29;20327;-89
2022/11/12 00:07:58;;;;;;;;;;;;;;;8.57;100.00;101204.97;4940606;28;19923;-91
2022/11/12 00:10:46;;;;;;;;;;;;;;;8.60;100.00;101198.75;4935751;29;20425;-91
2022/11/12 00:13:12;;;;;;;;;;;;;;;8.62;100.00;101197.88;4932266;29;20030;-91
2022/11/12 00:15:37;;;;;;;;;;;;;;;8.62;100.00;101199.66;4937121;29;20029;-93
2022/11/12 00:18:02;;;;;;;;;;;;;;;8.64;100.00;101197.84;4937847;29;20009;-85
2022/11/12 00:20:28;;;;;;;;;;;;;;;8.63;100.00;101196.09;4920299;29;19919;-90
2022/11/12 00:22:56;;;;;;;;;;;;;;;8.62;100.00;101191.72;4927771;29;19989;-88
2022/11/12 00:25:22;;;;;;;;;;;;;;;8.64;100.00;101196.06;4924944;29;19920;-93
2022/11/12 00:27:47;;;;;;;;;;;;;;;8.66;100.00;101190.75;4936012;29;20438;-89
2022/11/12 00:30:12;;;;;;;;;;;;;;;8.65;100.00;101196.97;4933539;29;19930;-92
2022/11/12 00:32:38;;;;;;;;;;;;;;;8.67;100.00;101200.44;4920676;29;20282;-90
2022/11/12 00:35:18;;;;;;;;;;;;;;;8.68;100.00;101200.44;4985602;23;19932;-89
2022/11/12 00:37:43;;;;;;;;;;;;;;;8.69;100.00;101214.50;4976224;28;19918;-92
2022/11/12 00:40:35;;;;;;;;;;;;;;;8.68;100.00;101210.09;4976305;28;19929;-88
2022/11/12 00:43:00;;;;;;;;;;;;;;;8.70;100.00;101213.63;4965314;28;19926;-89
2022/11/12 00:45:52;;;;;;;;;;;;;;;8.71;100.00;101210.06;4988537;28;20400;-93
2022/11/12 00:48:17;;;;;;;;;;;;;;;8.72;100.00;101206.56;4943441;28;19922;-93
2022/11/12 00:50:43;;;;;;;;;;;;;;;8.72;100.00;101204.78;4975580;28;19982;-91
2022/11/12 00:53:08;;;;;;;;;;;;;;;8.75;100.00;101203.88;4979644;28;19918;-95
2022/11/12 00:55:33;;;;;;;;;;;;;;;8.64;100.00;101209.28;4978400;28;19918;-90
2022/11/12 00:58:02;;;;;;;;;;;;;;;7.59;100.00;101201.50;4978945;28;19925;-92
2022/11/12 01:00:27;;;;;;;;;;;;;;;7.02;100.00;101204.53;4981245;28;19918;-92
2022/11/12 01:02:52;;;;;;;;;;;;;;;6.83;100.00;101201.09;4972921;28;20453;-91
2022/11/12 01:05:18;;;;;;;;;;;;;;;6.82;100.00;101207.28;4975886;28;19929;-89
2022/11/12 01:07:43;;;;;;;;;;;;;;;6.62;100.00;101208.25;4991860;28;19965;-92
2022/11/12 01:10:09;;;;;;;;;;;;;;;6.50;100.00;101203.03;4978792;28;19930;-92
2022/11/12 01:12:35;;;;;;;;;;;;;;;6.40;100.00;101196.91;4980857;28;19918;-90
2022/11/12 01:15:00;;;;;;;;;;;;;;;6.31;100.00;101199.56;4971638;28;19950;-93
2022/11/12 01:17:26;;;;;;;;;;;;;;;6.22;100.00;101208.34;4976895;28;20404;-95
2022/11/12 01:19:51;;;;;;;;;;;;;;;6.14;100.00;101215.38;4966216;28;19922;-89
2022/11/12 01:22:16;;;;;;;;;;;;;;;6.06;100.00;101206.63;4982915;28;20057;-93
2022/11/12 01:24:41;;;;;;;;;;;;;;;5.98;100.00;101207.53;4978925;28;20009;-88
2022/11/12 01:27:07;;;;;;;;;;;;;;;5.93;100.00;101195.22;4976712;28;19926;-90
2022/11/12 01:29:32;;;;;;;;;;;;;;;5.93;100.00;101196.09;4974777;28;19958;-85
2022/11/12 01:32:08;;;;;;;;;;;;;;;5.88;100.00;101197.00;4973376;28;19922;-93
2022/11/12 01:34:33;;;;;;;;;;;;;;;5.84;100.00;101201.38;4972934;28;19926;-86
2022/11/12 01:36:59;;;;;;;;;;;;;;;5.79;100.00;101197.84;4972674;28;19969;-86
2022/11/12 01:39:24;;;;;;;;;;;;;;;5.68;100.00;101205.78;4974315;28;19918;-90
2022/11/12 01:41:49;;;;;;;;;;;;;;;5.66;100.00;101198.75;4974734;28;19928;-91
2022/11/12 01:44:16;;;;;;;;;;;;;;;5.60;100.00;101200.50;4974122;28;20281;-90
2022/11/12 01:46:46;;;;;;;;;;;;;;;5.61;100.00;101209.25;4990286;28;20344;-90
2022/11/12 01:49:17;;;;;;;;;;;;;;;5.52;100.00;101204.91;4990665;28;19948;-89
2022/11/12 01:51:45;;;;;;;;;;;;;;;5.53;100.00;101197.88;4974314;28;20012;-90
2022/11/12 01:54:13;;;;;;;;;;;;;;;5.40;100.00;101197.00;4990421;28;19922;-90
2022/11/12 01:56:38;;;;;;;;;;;;;;;5.35;100.00;101204.88;4989907;28;19918;-88
2022/11/12 01:59:09;;;;;;;;;;;;;;;5.36;100.00;101200.47;4987284;28;19980;-87
2022/11/12 02:01:36;;;;;;;;;;;;;;;5.30;100.00;101182.97;4973852;28;20402;-89
2022/11/12 02:04:01;;;;;;;;;;;;;;;5.32;100.00;101190.84;4989978;28;20278;-90
2022/11/12 02:06:26;;;;;;;;;;;;;;;5.23;100.00;101186.44;4989696;28;19945;-91
2022/11/12 02:08:52;;;;;;;;;;;;;;;5.23;100.00;101189.06;4973236;28;19922;-90
2022/11/12 03:14:33;;;;;;;;;;;;;;;7.42;100.00;101164.75;5551677;23;19938;-87
2022/11/12 03:16:58;;;;;;;;;;;;;;;7.48;100.00;101167.28;4957817;29;20381;-88
2022/11/12 03:19:23;;;;;;;;;;;;;;;7.50;100.00;101159.38;4958814;29;19977;-88
2022/11/12 03:21:49;;;;;;;;;;;;;;;7.53;100.00;101156.72;4958206;29;19918;-91
2022/11/12 03:24:14;;;;;;;;;;;;;;;7.55;100.00;101154.97;4957771;29;20011;-89
2022/11/12 03:26:39;;;;;;;;;;;;;;;7.59;100.00;101154.03;4958502;29;20424;-87
2022/11/12 03:29:04;;;;;;;;;;;;;;;7.62;100.00;101161.91;4958622;29;19918;-87
2022/11/12 03:31:30;;;;;;;;;;;;;;;7.64;100.00;101152.22;4965084;29;19975;-93
2022/11/12 03:33:55;;;;;;;;;;;;;;;7.67;100.00;101154.81;4958953;28;20312;-93
2022/11/12 03:36:20;;;;;;;;;;;;;;;7.71;100.00;101153.06;4958758;29;19969;-93
2022/11/12 03:38:45;;;;;;;;;;;;;;;7.73;100.00;101149.50;4959130;29;19973;-91
2022/11/12 03:41:11;;;;;;;;;;;;;;;7.77;100.00;101152.97;4958727;29;19919;-91
2022/11/12 03:43:36;;;;;;;;;;;;;;;7.80;100.00;101151.22;4956085;29;20370;-89
2022/11/12 03:46:01;;;;;;;;;;;;;;;7.81;100.00;101147.66;4957294;29;19922;-92
2022/11/12 03:48:27;;;;;;;;;;;;;;;7.85;100.00;101152.91;4957099;29;20013;-90
2022/11/12 03:50:55;;;;;;;;;;;;;;;7.87;100.00;101152.00;4958270;29;19922;-90
2022/11/12 03:53:21;;;;;;;;;;;;;;;7.89;100.00;101149.38;4957434;29;19950;-90
2022/11/12 03:55:46;;;;;;;;;;;;;;;7.90;100.00;101154.63;4959701;29;19969;-91
2022/11/12 03:58:11;;;;;;;;;;;;;;;7.92;100.00;101150.19;4958555;29;19923;-92
2022/11/12 04:00:37;;;;;;;;;;;;;;;7.96;100.00;101145.75;4956861;29;19965;-91
2022/11/12 04:03:02;;;;;;;;;;;;;;;7.96;100.00;101141.38;4957176;29;19922;-89
2022/11/12 04:10:57;;;;;;;;;;;;;;;8.06;100.00;101135.97;4958750;29;19928;-87
2022/11/12 04:13:28;;;;;;;;;;;;;;;8.07;100.00;101138.59;4956581;29;19923;-87
2022/11/12 04:26:21;;;;;;;;;;;;;;;8.15;100.00;101139.41;4957734;28;19925;-89
2022/11/12 04:26:58;;;;;;;;;;;;;;;8.16;100.00;101143.78;4957113;29;20354;-90
2022/11/12 04:32:14;;;;;;;;;;;;;;;8.22;100.00;101144.59;4949098;28;19918;-87
2022/11/12 04:34:40;;;;;;;;;;;;;;;8.25;100.00;101141.91;4955877;29;19993;-88
2022/11/12 04:37:05;;;;;;;;;;;;;;;8.24;100.00;101141.06;4955885;29;20454;-89
2022/11/12 04:39:30;;;;;;;;;;;;;;;8.28;100.00;101141.88;4955630;29;19970;-84
2022/11/12 04:47:24;;;;;;;;;;;;;;;8.34;100.00;101147.09;4957337;29;20075;-87
2022/11/12 04:49:49;;;;;;;;;;;;;;;8.35;100.00;101148.84;4955658;29;20056;-88
2022/11/12 04:52:15;;;;;;;;;;;;;;;8.37;100.00;101144.41;4956878;29;19958;-88
2022/11/12 04:54:40;;;;;;;;;;;;;;;8.39;100.00;101154.97;4955447;29;20290;-84
2022/11/12 04:57:05;;;;;;;;;;;;;;;8.39;100.00;101142.63;4955700;29;19925;-89
2022/11/12 04:59:30;;;;;;;;;;;;;;;8.42;100.00;101139.09;4954245;29;19973;-91
2022/11/12 05:01:56;;;;;;;;;;;;;;;8.43;100.00;101139.09;4955681;29;19970;-85
2022/11/12 05:04:21;;;;;;;;;;;;;;;8.45;100.00;101139.94;4957331;29;19950;-94
2022/11/12 05:06:52;;;;;;;;;;;;;;;8.44;100.00;101132.94;4961304;29;20369;-95
2022/11/12 05:09:19;;;;;;;;;;;;;;;8.47;100.00;101129.34;4962239;29;19937;-93
2022/11/12 05:11:44;;;;;;;;;;;;;;;8.47;100.00;101129.34;4966290;29;19933;-92
2022/11/12 05:14:09;;;;;;;;;;;;;;;8.50;100.00;101134.59;4965802;29;19914;-94
2022/11/12 05:16:35;;;;;;;;;;;;;;;8.50;100.00;101132.84;4968918;29;20346;-92
2022/11/12 08:56:22;;;;;;;;;;;;;;;7.74;100.00;101235.69;5698283;23;19978;-84
2022/11/12 08:58:49;;;;;;;;;;;;;;;7.80;100.00;101235.66;4956548;28;19966;-86
2022/11/12 09:01:15;;;;;;;;;;;;;;;7.82;100.00;101233.88;4957066;29;19919;-84
2022/11/12 09:03:40;;;;;;;;;;;;;;;7.88;100.00;101232.06;4956672;28;19918;-84
2022/11/12 09:06:05;;;;;;;;;;;;;;;7.89;100.00;101233.81;4956698;28;19919;-83
2022/11/12 09:08:32;;;;;;;;;;;;;;;7.91;100.00;101229.38;4956616;28;19922;-85
2022/11/12 09:10:58;;;;;;;;;;;;;;;7.95;100.00;101229.34;4954201;28;19926;-84
2022/11/12 09:13:23;;;;;;;;;;;;;;;7.96;100.00;101223.19;4955464;29;19918;-84
2022/11/12 09:15:48;;;;;;;;;;;;;;;7.99;100.00;101224.91;4955208;28;20369;-82
2022/11/12 09:18:14;;;;;;;;;;;;;;;8.02;100.00;101222.25;4955293;29;19918;-83
2022/11/12 09:20:40;;;;;;;;;;;;;;;8.07;100.00;101220.44;4956378;29;20373;-84
2022/11/12 09:23:07;;;;;;;;;;;;;;;8.09;100.00;101215.13;4956271;29;19941;-85
2022/11/12 09:25:33;;;;;;;;;;;;;;;8.14;100.00;101213.34;4954898;29;19918;-83
2022/11/12 09:28:04;;;;;;;;;;;;;;;8.16;100.00;101216.84;4956185;29;20304;-83
2022/11/12 09:30:29;;;;;;;;;;;;;;;8.19;100.00;101219.44;4956264;29;20254;-84
2022/11/12 09:32:58;;;;;;;;;;;;;;;8.21;100.00;101220.31;4938913;29;19925;-83
2022/11/12 09:35:23;;;;;;;;;;;;;;;8.23;100.00;101221.16;4956096;29;19918;-84
2022/11/12 09:37:48;;;;;;;;;;;;;;;8.25;100.00;101221.13;4954767;29;20278;-83
2022/11/12 09:40:17;;;;;;;;;;;;;;;8.28;100.00;101227.28;4954690;29;19919;-84
2022/11/12 09:42:45;;;;;;;;;;;;;;;8.29;100.00;101212.31;4970225;28;20400;-83
2022/11/12 09:45:16;;;;;;;;;;;;;;;8.32;100.00;101212.28;4954714;29;20365;-85
2022/11/12 09:47:45;;;;;;;;;;;;;;;8.34;100.00;101219.31;4955866;29;20065;-84
2022/11/12 09:50:11;;;;;;;;;;;;;;;8.35;100.00;101217.53;4955888;29;19961;-83
2022/11/12 09:52:37;;;;;;;;;;;;;;;8.38;100.00;101217.50;4955753;29;19976;-84
2022/11/12 09:55:12;;;;;;;;;;;;;;;8.38;100.00;101220.13;4954299;29;19922;-85
2022/11/12 09:57:37;;;;;;;;;;;;;;;8.40;100.00;101220.97;4954312;28;19922;-84
2022/11/12 10:00:16;;;;;;;;;;;;;;;8.42;100.00;101218.31;4954868;29;20589;-84
2022/11/12 10:02:44;;;;;;;;;;;;;;;8.45;100.00;101219.19;4955620;29;19930;-84
2022/11/12 10:05:31;;;;;;;;;;;;;;;8.45;100.00;101211.25;4955527;29;19922;-82
2022/11/12 10:08:19;;;;;;;;;;;;;;;8.47;100.00;101205.97;4955462;28;19925;-82
2022/11/12 10:11:07;;;;;;;;;;;;;;;8.48;100.00;101213.88;4954090;28;19934;-82
2022/11/12 10:13:51;;;;;;;;;;;;;;;8.50;100.00;101217.41;4945152;29;19993;-84
2022/11/12 10:16:44;;;;;;;;;;;;;;;8.52;100.00;101215.59;4955387;29;19925;-83
2022/11/12 10:19:28;;;;;;;;;;;;;;;8.54;100.00;101207.66;4955223;29;19977;-85
2022/11/12 10:22:06;;;;;;;;;;;;;;;8.54;100.00;101205.88;4954999;28;20405;-86
2022/11/12 10:24:36;;;;;;;;;;;;;;;8.54;100.00;101213.81;4955333;29;19925;-86
2022/11/12 10:27:10;;;;;;;;;;;;;;;8.58;100.00;101211.13;4953866;29;19945;-86
2022/11/12 10:29:39;;;;;;;;;;;;;;;8.59;100.00;101205.81;4955310;29;20381;-85
2022/11/12 10:32:10;;;;;;;;;;;;;;;8.59;100.00;101207.59;4955123;29;19919;-85
2022/11/12 10:34:35;;;;;;;;;;;;;;;8.62;100.00;101204.94;4955153;29;19919;-85
2022/11/12 10:37:03;;;;;;;;;;;;;;;8.64;100.00;101204.00;4955041;29;19918;-85
2022/11/12 10:39:33;;;;;;;;;;;;;;;8.63;100.00;101206.66;4955184;29;19919;-84
2022/11/12 10:42:17;;;;;;;;;;;;;;;8.64;100.00;101197.84;4953847;29;19919;-86
2022/11/12 10:44:43;;;;;;;;;;;;;;;8.67;100.00;101190.75;4954961;29;19926;-84
2022/11/12 10:47:17;;;;;;;;;;;;;;;8.65;100.00;101181.13;4955052;28;19922;-84
2022/11/12 10:49:42;;;;;;;;;;;;;;;8.64;100.00;101176.72;4955168;29;19926;-83
2022/11/12 10:52:21;;;;;;;;;;;;;;;8.67;100.00;101174.03;4953836;29;19918;-84
2022/11/12 10:54:47;;;;;;;;;;;;;;;8.68;100.00;101167.84;4955062;28;20038;-82
2022/11/12 10:57:20;;;;;;;;;;;;;;;8.67;100.00;101163.47;4953379;28;20039;-85
2022/11/12 10:59:45;;;;;;;;;;;;;;;8.68;100.00;101162.53;4955056;29;19922;-84
2022/11/12 11:02:17;;;;;;;;;;;;;;;8.69;100.00;101154.59;4954934;29;19945;-85
2022/11/12 11:04:43;;;;;;;;;;;;;;;8.69;100.00;101156.38;4954917;28;20512;-86
2022/11/12 11:07:19;;;;;;;;;;;;;;;8.72;100.00;101151.91;4954759;29;20016;-84
2022/11/12 11:09:55;;;;;;;;;;;;;;;8.71;100.00;101151.94;4954910;29;19969;-86
2022/11/12 11:12:24;;;;;;;;;;;;;;;8.74;100.00;101146.63;4953494;28;19972;-82
2022/11/12 11:18:16;;;;;;;;;;;;;;;8.73;100.00;101144.88;4922839;29;19923;-83
2022/11/12 11:20:43;;;;;;;;;;;;;;;8.77;100.00;101138.66;4917399;29;19969;-83
2022/11/12 11:23:17;;;;;;;;;;;;;;;8.77;100.00;101138.66;4946662;29;20354;-83
2022/11/12 11:25:44;;;;;;;;;;;;;;;8.79;100.00;101149.19;4953502;29;19926;-83
2022/11/12 11:28:27;;;;;;;;;;;;;;;7.90;100.00;101141.44;4954691;29;19919;-84
2022/11/12 11:31:01;;;;;;;;;;;;;;;7.07;100.00;101144.78;4954503;29;19965;-84
2022/11/12 11:33:33;;;;;;;;;;;;;;;6.68;100.00;101142.34;4956025;28;19922;-87
2022/11/12 11:36:06;;;;;;;;;;;;;;;6.47;100.00;101140.69;4958453;29;19989;-84
2022/11/12 11:38:39;;;;;;;;;;;;;;;6.34;100.00;101133.75;4958359;29;19970;-83
2022/11/12 11:41:28;;;;;;;;;;;;;;;6.21;100.00;101132.91;4955539;29;19974;-84
2022/11/12 11:44:03;;;;;;;;;;;;;;;6.15;100.00;101127.66;4958055;29;19923;-82
2022/11/12 11:46:38;;;;;;;;;;;;;;;6.00;100.00;101118.94;4958081;29;20349;-85
2022/11/12 11:49:27;;;;;;;;;;;;;;;5.99;100.00;101121.56;4957958;29;19950;-83
2022/11/12 11:51:55;;;;;;;;;;;;;;;5.91;100.00;101124.19;4958032;29;19918;-84
2022/11/12 11:54:39;;;;;;;;;;;;;;;5.81;100.00;101106.69;4957912;29;20262;-85
2022/11/12 11:57:09;;;;;;;;;;;;;;;5.74;100.00;101110.19;4956144;29;19922;-84
2022/11/12 11:59:35;;;;;;;;;;;;;;;5.69;100.00;101106.69;4957933;29;20338;-84
2022/11/12 12:02:18;;;;;;;;;;;;;;;5.64;100.00;101104.94;4957601;29;19914;-83
2022/11/12 12:04:44;;;;;;;;;;;;;;;5.51;100.00;101097.09;4957810;29;19966;-84
2022/11/12 12:07:20;;;;;;;;;;;;;;;5.52;100.00;101099.72;4957557;29;20016;-84
2022/11/12 12:10:04;;;;;;;;;;;;;;;5.47;100.00;101096.19;4957792;28;19922;-83
2022/11/12 12:12:38;;;;;;;;;;;;;;;5.38;100.00;101101.50;4956106;29;19918;-83
2022/11/12 12:15:24;;;;;;;;;;;;;;;5.37;100.00;101094.47;4957455;29;20289;-86
2022/11/12 12:18:17;;;;;;;;;;;;;;;5.27;100.00;101090.97;4957134;29;19919;-84
2022/11/12 12:20:47;;;;;;;;;;;;;;;5.28;100.00;101093.59;4957202;29;19942;-84
2022/11/12 12:23:21;;;;;;;;;;;;;;;5.23;100.00;101092.75;4956126;29;20040;-84
2022/11/12 12:25:48;;;;;;;;;;;;;;;5.26;100.00;101092.75;4971071;28;19922;-83
2022/11/12 12:28:21;;;;;;;;;;;;;;;5.22;100.00;101082.22;4956085;29;19941;-83
2022/11/12 12:30:49;;;;;;;;;;;;;;;5.16;100.00;101087.47;4957390;29;19923;-82
2022/11/12 12:33:22;;;;;;;;;;;;;;;5.11;100.00;101086.59;4957110;28;19919;-83
2022/11/12 12:36:13;;;;;;;;;;;;;;;5.06;100.00;101076.97;4957222;29;19918;-82
2022/11/12 12:38:44;;;;;;;;;;;;;;;5.05;100.00;101082.22;4955729;29;20079;-82
2022/11/12 12:41:28;;;;;;;;;;;;;;;5.03;100.00;101081.34;4955793;29;20293;-84
2022/11/12 12:44:11;;;;;;;;;;;;;;;5.06;100.00;101081.34;4956554;28;20009;-85
2022/11/12 12:46:43;;;;;;;;;;;;;;;6.00;100.00;101068.94;4956571;29;19922;-86
2022/11/12 12:49:13;;;;;;;;;;;;;;;5.42;100.00;101076.94;4956953;29;20266;-82
2022/11/12 12:51:39;;;;;;;;;;;;;;;5.14;100.00;101071.72;4956984;29;19926;-85
2022/11/12 12:54:34;;;;;;;;;;;;;;;5.03;100.00;101069.06;4956758;29;19915;-88
2022/11/12 12:57:03;;;;;;;;;;;;;;;4.94;100.00;101068.19;4953782;28;19976;-87
2022/11/12 12:59:28;;;;;;;;;;;;;;;5.00;100.00;101068.19;4955856;29;20306;-85
2022/11/12 13:02:01;;;;;;;;;;;;;;;4.93;100.00;101066.44;4956745;28;19961;-86
2022/11/12 13:04:45;;;;;;;;;;;;;;;5.63;100.00;101054.97;4955457;29;19925;-86
2022/11/12 13:07:10;;;;;;;;;;;;;;;6.10;100.00;101047.88;4956487;29;19968;-84
2022/11/12 13:09:38;;;;;;;;;;;;;;;6.33;100.00;101046.00;4956569;29;19918;-83
2022/11/12 13:14:36;;;;;;;;;;;;;;;6.64;100.00;101037.91;4956652;28;20274;-87
2022/11/12 13:17:08;;;;;;;;;;;;;;;6.75;100.00;101042.22;4955066;29;19994;-86
2022/11/12 13:19:33;;;;;;;;;;;;;;;6.87;100.00;101050.03;4956564;29;19919;-86
2022/11/12 13:22:17;;;;;;;;;;;;;;;6.95;100.00;101044.72;4956293;29;19918;-87
2022/11/12 13:25:01;;;;;;;;;;;;;;;7.02;100.00;101041.13;4955181;29;19930;-85
2022/11/12 13:27:45;;;;;;;;;;;;;;;7.09;100.00;101046.34;4954800;29;20362;-85
2022/11/12 13:30:16;;;;;;;;;;;;;;;7.13;100.00;101041.03;4954776;29;20362;-86
2022/11/12 13:32:47;;;;;;;;;;;;;;;7.18;100.00;101032.22;4956078;29;19929;-86
2022/11/12 13:35:12;;;;;;;;;;;;;;;7.26;100.00;101032.16;4956062;29;19953;-85
2022/11/12 13:37:48;;;;;;;;;;;;;;;7.29;100.00;101029.47;4956124;29;19965;-86
2022/11/12 13:40:18;;;;;;;;;;;;;;;7.34;100.00;101030.31;4955776;29;19925;-86
2022/11/12 13:45:19;;;;;;;;;;;;;;;7.41;100.00;101036.41;5253283;23;19927;-88
2022/11/12 13:47:47;;;;;;;;;;;;;;;7.46;100.00;101034.59;4955009;29;19965;-85
2022/11/12 13:50:15;;;;;;;;;;;;;;;7.50;100.00;101038.94;4954525;29;19944;-87
2022/11/12 13:52:49;;;;;;;;;;;;;;;7.53;100.00;101036.28;4955758;28;19923;-89
2022/11/12 13:55:16;;;;;;;;;;;;;;;7.57;100.00;101035.34;4955540;28;19922;-87
2022/11/12 13:57:52;;;;;;;;;;;;;;;7.61;100.00;101031.78;4952879;29;19919;-85
2022/11/12 14:00:17;;;;;;;;;;;;;;;7.65;100.00;101030.00;4955594;29;19925;-87
2022/11/12 14:02:49;;;;;;;;;;;;;;;7.69;100.00;101031.72;4954332;29;19919;-87
2022/11/12 14:05:36;;;;;;;;;;;;;;;7.72;100.00;101026.41;4954327;29;19962;-86
2022/11/12 14:08:15;;;;;;;;;;;;;;;7.76;100.00;101020.19;4954352;29;19925;-86
2022/11/12 14:10:59;;;;;;;;;;;;;;;7.81;100.00;101020.13;4954407;28;19922;-91
2022/11/12 14:13:33;;;;;;;;;;;;;;;7.81;100.00;101015.72;4955204;29;19958;-86
2022/11/12 14:16:17;;;;;;;;;;;;;;;7.86;100.00;101012.16;4955406;29;19946;-87
2022/11/12 14:18:55;;;;;;;;;;;;;;;7.89;100.00;101012.13;4954629;29;20329;-86
2022/11/12 14:21:23;;;;;;;;;;;;;;;7.93;100.00;101013.81;4953820;29;19929;-89
2022/11/12 14:24:00;;;;;;;;;;;;;;;7.94;100.00;101010.28;4955253;29;20326;-90
2022/11/12 14:26:33;;;;;;;;;;;;;;;7.98;100.00;101009.38;4952669;29;19966;-86
2022/11/12 14:28:58;;;;;;;;;;;;;;;8.02;100.00;101016.34;4955295;28;19989;-86
2022/11/12 14:31:26;;;;;;;;;;;;;;;8.07;100.00;101014.50;4955064;29;19958;-90
2022/11/12 14:34:14;;;;;;;;;;;;;;;8.12;100.00;101014.47;4955294;29;19933;-87
2022/11/12 14:36:40;;;;;;;;;;;;;;;8.13;100.00;101001.25;4953268;29;19925;-85
2022/11/12 14:39:05;;;;;;;;;;;;;;;8.15;100.00;101004.75;4955164;29;19918;-86
2022/11/12 14:41:34;;;;;;;;;;;;;;;8.17;100.00;100992.41;4952538;29;20017;-86
2022/11/12 14:44:03;;;;;;;;;;;;;;;8.23;100.00;100999.34;4955022;28;19974;-86
2022/11/12 14:46:31;;;;;;;;;;;;;;;8.24;100.00;100995.81;4955326;29;19948;-87
2022/11/12 14:49:03;;;;;;;;;;;;;;;8.28;100.00;100999.28;4954841;28;19962;-87
2022/11/12 14:51:30;;;;;;;;;;;;;;;8.28;100.00;101002.81;4955004;29;20013;-85
2022/11/12 14:54:04;;;;;;;;;;;;;;;8.30;100.00;100998.38;4953887;29;19941;-88
2022/11/12 14:56:37;;;;;;;;;;;;;;;8.32;100.00;100995.72;4953642;28;19942;-86
2022/11/12 14:59:03;;;;;;;;;;;;;;;8.37;100.00;100991.22;4955041;28;20396;-87
2022/11/12 15:01:30;;;;;;;;;;;;;;;8.37;100.00;100983.31;4955043;29;19918;-86
2022/11/12 15:04:33;;;;;;;;;;;;;;;8.39;100.00;100981.50;4955114;29;19926;-88
2022/11/12 15:06:59;;;;;;;;;;;;;;;8.41;100.00;100982.38;4953661;28;19930;-88
2022/11/12 15:09:32;;;;;;;;;;;;;;;8.42;100.00;100976.19;4972810;28;19923;-90
2022/11/12 15:11:57;;;;;;;;;;;;;;;8.44;100.00;100974.44;4957366;29;19919;-88
2022/11/12 15:14:27;;;;;;;;;;;;;;;8.47;100.00;100971.75;4958886;29;19918;-89
2022/11/12 15:16:53;;;;;;;;;;;;;;;8.47;100.00;100969.13;4958666;28;19919;-86
2022/11/12 15:19:25;;;;;;;;;;;;;;;8.51;100.00;100969.94;4957245;29;20025;-86
2022/11/12 15:21:52;;;;;;;;;;;;;;;8.53;100.00;100974.28;4958605;29;19926;-86
2022/11/12 15:24:25;;;;;;;;;;;;;;;8.54;100.00;100967.25;4957208;29;19925;-85
2022/11/12 15:26:51;;;;;;;;;;;;;;;8.57;100.00;100963.66;4957321;28;19929;-87
2022/11/12 15:29:23;;;;;;;;;;;;;;;8.58;100.00;100962.78;4958343;28;20390;-86
2022/11/12 15:31:54;;;;;;;;;;;;;;;8.59;100.00;100964.53;4957206;29;19919;-85
2022/11/12 15:34:37;;;;;;;;;;;;;;;8.60;100.00;100959.22;4958232;29;19919;-90
2022/11/12 15:37:04;;;;;;;;;;;;;;;8.61;100.00;100954.81;4956829;29;19982;-85
2022/11/12 15:39:31;;;;;;;;;;;;;;;8.64;100.00;100957.41;4957077;29;20305;-86
2022/11/12 15:41:58;;;;;;;;;;;;;;;8.64;100.00;100949.47;4947100;28;20622;-86
2022/11/12 15:44:23;;;;;;;;;;;;;;;8.65;100.00;100956.53;4947032;29;19926;-85
2022/11/12 15:46:49;;;;;;;;;;;;;;;8.67;100.00;100945.00;4945036;29;20492;-85
2022/11/12 15:49:14;;;;;;;;;;;;;;;8.66;100.00;100945.94;4943263;29;19958;-87
2022/11/12 15:51:42;;;;;;;;;;;;;;;8.68;100.00;100941.47;4943823;29;19929;-89
2022/11/12 15:54:07;;;;;;;;;;;;;;;8.72;100.00;100942.28;4945069;28;20374;-84
2022/11/12 15:56:32;;;;;;;;;;;;;;;8.70;100.00;100949.38;4947711;29;19922;-85
2022/11/12 15:58:58;;;;;;;;;;;;;;;8.70;100.00;100939.69;4945792;28;19922;-88
2022/11/12 16:01:23;;;;;;;;;;;;;;;8.70;100.00;100936.16;4949451;28;19966;-85
2022/11/12 16:03:48;;;;;;;;;;;;;;;8.72;100.00;100935.22;4957336;28;19997;-84
2022/11/12 16:06:13;;;;;;;;;;;;;;;8.74;100.00;100932.56;4956814;28;19997;-85
2022/11/12 16:08:39;;;;;;;;;;;;;;;8.77;100.00;100937.78;4955888;29;19945;-84
2022/11/12 16:11:34;;;;;;;;;;;;;;;8.76;100.00;100936.06;4956203;28;19918;-86
2022/11/12 16:13:57;;;;;;;;;;;;;;;8.78;100.00;100942.19;4970150;28;20388;-87
2022/11/12 16:16:22;;;;;;;;;;;;;;;8.80;100.00;100935.09;4952731;28;19985;-84
2022/11/12 16:18:47;;;;;;;;;;;;;;;8.81;100.00;100928.06;4960604;28;20428;-88
2022/11/12 16:21:13;;;;;;;;;;;;;;;8.98;100.00;100939.19;4971804;28;19925;-87
2022/11/12 16:23:38;;;;;;;;;;;;;;;9.88;100.00;100938.31;4971462;28;20000;-83
2022/11/12 16:26:06;;;;;;;;;;;;;;;10.15;100.00;100926.22;4968314;28;20293;-82
2022/11/12 16:28:31;;;;;;;;;;;;;;;10.26;100.00;100935.69;4960683;28;19922;-82
2022/11/12 16:30:56;;;;;;;;;;;;;;;10.20;100.00;100927.91;4960201;28;19930;-83
2022/11/12 16:33:22;;;;;;;;;;;;;;;10.32;100.00;100920.59;4957115;29;20013;-83
2022/11/12 16:35:47;;;;;;;;;;;;;;;10.36;100.00;100924.88;4954196;28;19974;-84
2022/11/12 16:38:13;;;;;;;;;;;;;;;10.47;100.00;100926.41;4976563;28;20399;-84
2022/11/12 16:40:39;;;;;;;;;;;;;;;10.37;100.00;100933.72;4975153;28;19918;-83
2022/11/12 16:43:04;;;;;;;;;;;;;;;10.50;100.00;100926.34;4976582;28;19926;-82
2022/11/12 16:45:34;;;;;;;;;;;;;;;10.69;100.00;100917.03;4972999;28;19922;-83
2022/11/12 16:48:00;;;;;;;;;;;;;;;10.69;100.00;100921.44;4950292;28;20025;-82
2022/11/12 16:50:26;;;;;;;;;;;;;;;10.61;100.00;100921.66;4955041;28;20013;-82
2022/11/12 16:52:52;;;;;;;;;;;;;;;10.73;100.00;100925.75;4950697;28;20005;-83
2022/11/12 16:55:18;;;;;;;;;;;;;;;10.80;100.00;100922.06;4945027;28;20017;-83
2022/11/12 16:57:43;;;;;;;;;;;;;;;10.86;100.00;100923.66;4949605;28;20288;-83
2022/11/12 17:00:09;;;;;;;;;;;;;;;10.80;100.00;100921.16;4947521;29;19919;-83
2022/11/12 17:02:35;;;;;;;;;;;;;;;10.87;100.00;100920.13;4938735;29;19919;-83
2022/11/12 17:05:02;;;;;;;;;;;;;;;10.79;100.00;100919.44;4956784;29;20017;-84
2022/11/12 17:07:27;;;;;;;;;;;;;;;10.72;100.00;100927.56;4955422;29;19941;-84
2022/11/12 17:09:52;;;;;;;;;;;;;;;10.59;100.00;100920.78;4955351;29;20290;-83
2022/11/12 17:12:18;;;;;;;;;;;;;;;10.36;100.00;100924.88;4955738;29;19922;-83
2022/11/12 17:14:43;;;;;;;;;;;;;;;10.32;100.00;100915.28;4955320;29;20313;-84
2022/11/12 17:17:08;;;;;;;;;;;;;;;10.39;100.00;100913.34;4948054;28;20366;-83
2022/11/12 17:19:33;;;;;;;;;;;;;;;10.42;100.00;100910.63;4956937;28;19922;-84
2022/11/12 17:21:59;;;;;;;;;;;;;;;10.24;100.00;100911.88;4954644;28;20093;-85
2022/11/12 17:24:25;;;;;;;;;;;;;;;10.10;100.00;100916.63;4952246;28;19929;-83
2022/11/12 17:26:50;;;;;;;;;;;;;;;10.03;100.00;100912.41;4947327;29;19950;-83
2022/11/12 17:29:15;;;;;;;;;;;;;;;10.08;100.00;100918.47;4955008;28;20013;-82
2022/11/12 17:31:40;;;;;;;;;;;;;;;10.05;100.00;100914.13;4954205;28;19919;-83
2022/11/12 17:34:06;;;;;;;;;;;;;;;10.10;100.00;100919.28;4967144;28;19969;-80
2022/11/12 17:36:31;;;;;;;;;;;;;;;10.06;100.00;100918.50;4954230;28;20362;-80
2022/11/12 17:38:57;;;;;;;;;;;;;;;10.01;100.00;100917.72;4955285;29;19925;-83
2022/11/12 17:41:23;;;;;;;;;;;;;;;10.00;100.00;100914.22;4950796;28;19962;-82
2022/11/12 17:43:55;;;;;;;;;;;;;;;10.03;100.00;100915.06;4954342;28;20417;-82
2022/11/12 17:46:20;;;;;;;;;;;;;;;9.94;100.00;100903.75;4936483;29;19972;-82
2022/11/12 17:48:46;;;;;;;;;;;;;;;9.86;100.00;100908.38;4939483;29;19970;-82
2022/11/12 17:51:13;;;;;;;;;;;;;;;9.17;100.00;100897.41;4949571;28;20354;-83
2022/11/12 17:53:39;;;;;;;;;;;;;;;8.65;100.00;100898.41;4953960;29;20013;-83
2022/11/12 17:56:05;;;;;;;;;;;;;;;8.28;100.00;100905.13;4936516;29;20013;-85
2022/11/12 17:58:30;;;;;;;;;;;;;;;8.17;100.00;100901.78;4947172;29;19929;-83